sensor_id;sensor_type;location;lat;lon;timestamp;P1;durP1;ratioP1;P2;durP2;ratioP2
14121;SDS011;7139;48.114;11.442;2023-09-12T00:01:34;11.17;;;10.07;;
14121;SDS011;7139;48.114;11.442;2023-09-12T00:04:01;11.13;;;10.23;;
14121;SDS011;7139;48.114;11.442;2023-09-12T00:06:27;10.17;;;9.37;;
14121;SDS011;7139;48.114;11.442;2023-09-12T00:08:54;10.70;;;9.80;;
14121;SDS011;7139;48.114;11.442;2023-09-12T00:11:21;9.77;;;8.90;;
14121;SDS011;7139;48.114;11.442;2023-09-12T00:13:51;10.53;;;9.53;;
14121;SDS011;7139;48.114;11.442;2023-09-12T00:16:18;10.40;;;9.50;;
14121;SDS011;7139;48.114;11.442;2023-09-12T00:18:45;11.10;;;10.00;;
14121;SDS011;7139;48.114;11.442;2023-09-12T00:21:12;12.50;;;9.43;;
14121;SDS011;7139;48.114;11.442;2023-09-12T00:23:38;11.37;;;10.23;;
14121;SDS011;7139;48.114;11.442;2023-09-12T00:26:05;10.47;;;9.47;;
14121;SDS011;7139;48.114;11.442;2023-09-12T00:28:32;10.83;;;9.77;;
14121;SDS011;7139;48.114;11.442;2023-09-12T00:31:00;10.43;;;9.53;;
14121;SDS011;7139;48.114;11.442;2023-09-12T00:33:27;12.10;;;9.90;;
14121;SDS011;7139;48.114;11.442;2023-09-12T00:35:54;10.87;;;9.80;;
14121;SDS011;7139;48.114;11.442;2023-09-12T00:38:20;11.20;;;10.07;;
14121;SDS011;7139;48.114;11.442;2023-09-12T00:40:47;10.80;;;9.80;;
14121;SDS011;7139;48.114;11.442;2023-09-12T00:43:14;11.20;;;10.03;;
14121;SDS011;7139;48.114;11.442;2023-09-12T00:45:41;11.43;;;10.43;;
14121;SDS011;7139;48.114;11.442;2023-09-12T00:48:10;11.00;;;9.63;;
14121;SDS011;7139;48.114;11.442;2023-09-12T00:50:38;10.80;;;9.80;;
14121;SDS011;7139;48.114;11.442;2023-09-12T00:53:06;10.87;;;9.97;;
14121;SDS011;7139;48.114;11.442;2023-09-12T00:55:33;11.23;;;10.00;;
14121;SDS011;7139;48.114;11.442;2023-09-12T00:58:03;10.43;;;9.43;;
14121;SDS011;7139;48.114;11.442;2023-09-12T01:00:30;11.33;;;10.33;;
14121;SDS011;7139;48.114;11.442;2023-09-12T01:02:57;12.77;;;9.87;;
14121;SDS011;7139;48.114;11.442;2023-09-12T01:05:26;11.07;;;9.90;;
14121;SDS011;7139;48.114;11.442;2023-09-12T01:07:54;11.00;;;10.00;;
14121;SDS011;7139;48.114;11.442;2023-09-12T01:10:21;11.37;;;10.47;;
14121;SDS011;7139;48.114;11.442;2023-09-12T01:12:48;11.03;;;10.03;;
14121;SDS011;7139;48.114;11.442;2023-09-12T01:15:16;11.20;;;10.20;;
14121;SDS011;7139;48.114;11.442;2023-09-12T01:17:43;11.90;;;10.70;;
14121;SDS011;7139;48.114;11.442;2023-09-12T01:20:11;12.00;;;10.93;;
14121;SDS011;7139;48.114;11.442;2023-09-12T01:22:50;11.57;;;10.53;;
14121;SDS011;7139;48.114;11.442;2023-09-12T01:28:24;10.90;;;10.00;;
14121;SDS011;7139;48.114;11.442;2023-09-12T01:30:55;10.47;;;9.67;;
14121;SDS011;7139;48.114;11.442;2023-09-12T01:33:24;11.33;;;10.13;;
14121;SDS011;7139;48.114;11.442;2023-09-12T01:35:51;10.47;;;9.57;;
14121;SDS011;7139;48.114;11.442;2023-09-12T01:38:18;11.23;;;10.13;;
14121;SDS011;7139;48.114;11.442;2023-09-12T01:40:45;10.80;;;9.80;;
14121;SDS011;7139;48.114;11.442;2023-09-12T01:43:15;10.70;;;9.80;;
14121;SDS011;7139;48.114;11.442;2023-09-12T01:45:45;11.33;;;10.17;;
14121;SDS011;7139;48.114;11.442;2023-09-12T01:48:13;11.43;;;10.40;;
14121;SDS011;7139;48.114;11.442;2023-09-12T01:50:45;10.90;;;9.90;;
14121;SDS011;7139;48.114;11.442;2023-09-12T01:53:12;10.47;;;9.63;;
14121;SDS011;7139;48.114;11.442;2023-09-12T01:55:40;10.63;;;9.80;;
14121;SDS011;7139;48.114;11.442;2023-09-12T01:58:08;10.97;;;9.97;;
14121;SDS011;7139;48.114;11.442;2023-09-12T02:00:35;10.63;;;9.70;;
14121;SDS011;7139;48.114;11.442;2023-09-12T02:03:04;10.83;;;9.93;;
14121;SDS011;7139;48.114;11.442;2023-09-12T02:05:31;11.30;;;10.30;;
14121;SDS011;7139;48.114;11.442;2023-09-12T02:07:58;11.07;;;10.07;;
14121;SDS011;7139;48.114;11.442;2023-09-12T02:10:25;11.37;;;10.37;;
14121;SDS011;7139;48.114;11.442;2023-09-12T02:12:52;10.97;;;10.00;;
14121;SDS011;7139;48.114;11.442;2023-09-12T02:15:18;11.60;;;10.50;;
14121;SDS011;7139;48.114;11.442;2023-09-12T02:17:45;10.93;;;10.03;;
14121;SDS011;7139;48.114;11.442;2023-09-12T02:20:16;11.37;;;10.37;;
14121;SDS011;7139;48.114;11.442;2023-09-12T02:22:43;11.03;;;10.13;;
14121;SDS011;7139;48.114;11.442;2023-09-12T02:25:10;11.03;;;10.13;;
14121;SDS011;7139;48.114;11.442;2023-09-12T02:27:37;11.47;;;10.37;;
14121;SDS011;7139;48.114;11.442;2023-09-12T02:30:04;11.77;;;10.63;;
14121;SDS011;7139;48.114;11.442;2023-09-12T02:32:32;11.40;;;10.33;;
14121;SDS011;7139;48.114;11.442;2023-09-12T02:34:59;11.03;;;10.03;;
14121;SDS011;7139;48.114;11.442;2023-09-12T02:37:27;10.90;;;10.00;;
14121;SDS011;7139;48.114;11.442;2023-09-12T02:39:53;11.77;;;10.73;;
14121;SDS011;7139;48.114;11.442;2023-09-12T02:42:20;11.53;;;10.37;;
14121;SDS011;7139;48.114;11.442;2023-09-12T02:44:47;11.67;;;10.57;;
14121;SDS011;7139;48.114;11.442;2023-09-12T02:47:14;11.60;;;10.70;;
14121;SDS011;7139;48.114;11.442;2023-09-12T02:49:41;11.33;;;10.30;;
14121;SDS011;7139;48.114;11.442;2023-09-12T02:52:07;11.57;;;10.57;;
14121;SDS011;7139;48.114;11.442;2023-09-12T02:54:36;11.97;;;10.77;;
14121;SDS011;7139;48.114;11.442;2023-09-12T02:57:03;11.50;;;10.30;;
14121;SDS011;7139;48.114;11.442;2023-09-12T02:59:29;11.30;;;10.17;;
14121;SDS011;7139;48.114;11.442;2023-09-12T03:01:56;11.30;;;10.27;;
14121;SDS011;7139;48.114;11.442;2023-09-12T03:04:24;10.83;;;9.83;;
14121;SDS011;7139;48.114;11.442;2023-09-12T03:06:51;11.40;;;10.30;;
14121;SDS011;7139;48.114;11.442;2023-09-12T03:09:18;11.13;;;10.07;;
14121;SDS011;7139;48.114;11.442;2023-09-12T03:11:46;11.40;;;10.37;;
14121;SDS011;7139;48.114;11.442;2023-09-12T03:14:13;11.33;;;9.90;;
14121;SDS011;7139;48.114;11.442;2023-09-12T03:16:39;11.93;;;10.83;;
14121;SDS011;7139;48.114;11.442;2023-09-12T03:19:06;10.93;;;10.03;;
14121;SDS011;7139;48.114;11.442;2023-09-12T03:21:33;11.73;;;10.30;;
14121;SDS011;7139;48.114;11.442;2023-09-12T03:24:00;10.70;;;9.67;;
14121;SDS011;7139;48.114;11.442;2023-09-12T03:26:27;11.00;;;10.07;;
14121;SDS011;7139;48.114;11.442;2023-09-12T03:28:55;10.90;;;9.90;;
14121;SDS011;7139;48.114;11.442;2023-09-12T03:31:22;11.00;;;10.00;;
14121;SDS011;7139;48.114;11.442;2023-09-12T03:33:48;10.33;;;9.53;;
14121;SDS011;7139;48.114;11.442;2023-09-12T03:36:15;11.50;;;10.50;;
14121;SDS011;7139;48.114;11.442;2023-09-12T03:38:43;10.70;;;9.73;;
14121;SDS011;7139;48.114;11.442;2023-09-12T03:41:09;10.87;;;9.97;;
14121;SDS011;7139;48.114;11.442;2023-09-12T03:43:36;13.87;;;10.50;;
14121;SDS011;7139;48.114;11.442;2023-09-12T03:46:05;12.27;;;11.03;;
14121;SDS011;7139;48.114;11.442;2023-09-12T03:48:31;11.43;;;10.33;;
14121;SDS011;7139;48.114;11.442;2023-09-12T03:51:01;10.63;;;9.67;;
14121;SDS011;7139;48.114;11.442;2023-09-12T03:53:29;11.20;;;9.93;;
14121;SDS011;7139;48.114;11.442;2023-09-12T03:55:57;11.67;;;10.17;;
14121;SDS011;7139;48.114;11.442;2023-09-12T03:58:24;12.00;;;11.00;;
14121;SDS011;7139;48.114;11.442;2023-09-12T04:00:50;11.23;;;10.23;;
14121;SDS011;7139;48.114;11.442;2023-09-12T04:03:18;10.83;;;9.93;;
14121;SDS011;7139;48.114;11.442;2023-09-12T04:05:46;11.57;;;10.47;;
14121;SDS011;7139;48.114;11.442;2023-09-12T04:08:12;11.63;;;10.63;;
14121;SDS011;7139;48.114;11.442;2023-09-12T04:10:39;11.80;;;10.63;;
14121;SDS011;7139;48.114;11.442;2023-09-12T04:13:06;12.07;;;11.00;;
14121;SDS011;7139;48.114;11.442;2023-09-12T04:15:33;11.43;;;10.53;;
14121;SDS011;7139;48.114;11.442;2023-09-12T04:18:00;12.63;;;11.40;;
14121;SDS011;7139;48.114;11.442;2023-09-12T04:20:28;12.03;;;11.03;;
14121;SDS011;7139;48.114;11.442;2023-09-12T04:22:55;11.20;;;10.03;;
14121;SDS011;7139;48.114;11.442;2023-09-12T04:25:21;12.37;;;10.97;;
14121;SDS011;7139;48.114;11.442;2023-09-12T04:27:48;12.13;;;11.13;;
14121;SDS011;7139;48.114;11.442;2023-09-12T04:30:15;11.37;;;10.37;;
14121;SDS011;7139;48.114;11.442;2023-09-12T04:32:42;12.53;;;11.23;;
14121;SDS011;7139;48.114;11.442;2023-09-12T04:35:09;12.70;;;11.53;;
14121;SDS011;7139;48.114;11.442;2023-09-12T04:37:37;12.47;;;11.23;;
14121;SDS011;7139;48.114;11.442;2023-09-12T04:40:04;12.40;;;11.27;;
14121;SDS011;7139;48.114;11.442;2023-09-12T04:42:33;14.13;;;11.10;;
14121;SDS011;7139;48.114;11.442;2023-09-12T04:45:00;12.47;;;11.30;;
14121;SDS011;7139;48.114;11.442;2023-09-12T04:47:27;13.50;;;11.33;;
14121;SDS011;7139;48.114;11.442;2023-09-12T04:49:54;12.50;;;11.27;;
14121;SDS011;7139;48.114;11.442;2023-09-12T04:52:20;11.83;;;10.70;;
14121;SDS011;7139;48.114;11.442;2023-09-12T04:54:48;13.03;;;10.80;;
14121;SDS011;7139;48.114;11.442;2023-09-12T04:57:15;17.40;;;11.87;;
14121;SDS011;7139;48.114;11.442;2023-09-12T04:59:42;17.07;;;12.03;;
14121;SDS011;7139;48.114;11.442;2023-09-12T05:02:09;14.70;;;12.07;;
14121;SDS011;7139;48.114;11.442;2023-09-12T05:04:36;16.73;;;12.00;;
14121;SDS011;7139;48.114;11.442;2023-09-12T05:07:02;14.83;;;11.10;;
14121;SDS011;7139;48.114;11.442;2023-09-12T05:09:29;13.17;;;11.20;;
14121;SDS011;7139;48.114;11.442;2023-09-12T05:11:57;13.43;;;11.70;;
14121;SDS011;7139;48.114;11.442;2023-09-12T05:14:24;18.13;;;11.67;;
14121;SDS011;7139;48.114;11.442;2023-09-12T05:16:51;14.40;;;11.80;;
14121;SDS011;7139;48.114;11.442;2023-09-12T05:19:18;13.67;;;11.97;;
14121;SDS011;7139;48.114;11.442;2023-09-12T05:21:44;16.70;;;11.90;;
14121;SDS011;7139;48.114;11.442;2023-09-12T05:24:11;19.13;;;12.07;;
14121;SDS011;7139;48.114;11.442;2023-09-12T05:26:38;17.93;;;12.23;;
14121;SDS011;7139;48.114;11.442;2023-09-12T05:29:06;24.83;;;12.73;;
14121;SDS011;7139;48.114;11.442;2023-09-12T05:31:33;24.93;;;12.60;;
14121;SDS011;7139;48.114;11.442;2023-09-12T05:33:59;21.40;;;12.43;;
14121;SDS011;7139;48.114;11.442;2023-09-12T05:36:26;20.93;;;13.03;;
14121;SDS011;7139;48.114;11.442;2023-09-12T05:38:53;27.70;;;13.03;;
14121;SDS011;7139;48.114;11.442;2023-09-12T05:41:20;22.37;;;12.43;;
14121;SDS011;7139;48.114;11.442;2023-09-12T05:43:47;22.50;;;12.57;;
14121;SDS011;7139;48.114;11.442;2023-09-12T05:46:15;25.67;;;12.50;;
14121;SDS011;7139;48.114;11.442;2023-09-12T05:48:41;22.40;;;12.30;;
14121;SDS011;7139;48.114;11.442;2023-09-12T05:51:08;19.57;;;12.03;;
14121;SDS011;7139;48.114;11.442;2023-09-12T05:53:36;24.00;;;12.00;;
14121;SDS011;7139;48.114;11.442;2023-09-12T05:56:03;17.83;;;11.97;;
14121;SDS011;7139;48.114;11.442;2023-09-12T05:58:30;14.77;;;12.40;;
14121;SDS011;7139;48.114;11.442;2023-09-12T06:00:57;16.37;;;12.30;;
14121;SDS011;7139;48.114;11.442;2023-09-12T06:03:25;13.43;;;12.03;;
14121;SDS011;7139;48.114;11.442;2023-09-12T06:05:51;12.80;;;11.47;;
14121;SDS011;7139;48.114;11.442;2023-09-12T06:08:18;13.33;;;11.73;;
14121;SDS011;7139;48.114;11.442;2023-09-12T06:10:45;11.63;;;10.53;;
14121;SDS011;7139;48.114;11.442;2023-09-12T06:13:13;12.57;;;11.27;;
14121;SDS011;7139;48.114;11.442;2023-09-12T06:15:40;12.20;;;11.10;;
14121;SDS011;7139;48.114;11.442;2023-09-12T06:18:07;11.67;;;10.57;;
14121;SDS011;7139;48.114;11.442;2023-09-12T06:20:35;12.30;;;11.00;;
14121;SDS011;7139;48.114;11.442;2023-09-12T06:23:02;12.20;;;11.00;;
14121;SDS011;7139;48.114;11.442;2023-09-12T06:25:30;11.83;;;10.83;;
14121;SDS011;7139;48.114;11.442;2023-09-12T06:27:57;11.83;;;10.77;;
14121;SDS011;7139;48.114;11.442;2023-09-12T06:30:23;11.53;;;10.53;;
14121;SDS011;7139;48.114;11.442;2023-09-12T06:32:50;12.73;;;11.63;;
14121;SDS011;7139;48.114;11.442;2023-09-12T06:35:17;12.13;;;11.00;;
14121;SDS011;7139;48.114;11.442;2023-09-12T06:37:45;12.20;;;11.00;;
14121;SDS011;7139;48.114;11.442;2023-09-12T06:40:12;12.47;;;11.37;;
14121;SDS011;7139;48.114;11.442;2023-09-12T06:42:39;12.73;;;11.53;;
14121;SDS011;7139;48.114;11.442;2023-09-12T06:45:06;12.70;;;11.50;;
14121;SDS011;7139;48.114;11.442;2023-09-12T06:47:33;11.60;;;10.60;;
14121;SDS011;7139;48.114;11.442;2023-09-12T06:50:00;11.60;;;10.50;;
14121;SDS011;7139;48.114;11.442;2023-09-12T06:52:27;11.57;;;10.57;;
14121;SDS011;7139;48.114;11.442;2023-09-12T06:54:55;12.30;;;10.97;;
14121;SDS011;7139;48.114;11.442;2023-09-12T06:57:23;11.53;;;10.53;;
14121;SDS011;7139;48.114;11.442;2023-09-12T06:59:50;11.90;;;10.83;;
14121;SDS011;7139;48.114;11.442;2023-09-12T07:02:17;12.33;;;11.23;;
14121;SDS011;7139;48.114;11.442;2023-09-12T07:04:44;11.50;;;10.40;;
14121;SDS011;7139;48.114;11.442;2023-09-12T07:07:10;11.77;;;10.67;;
14121;SDS011;7139;48.114;11.442;2023-09-12T07:09:37;10.80;;;9.73;;
14121;SDS011;7139;48.114;11.442;2023-09-12T07:12:06;12.00;;;10.80;;
14121;SDS011;7139;48.114;11.442;2023-09-12T07:14:33;11.23;;;10.30;;
14121;SDS011;7139;48.114;11.442;2023-09-12T07:16:59;11.40;;;10.30;;
14121;SDS011;7139;48.114;11.442;2023-09-12T07:19:26;11.60;;;10.57;;
14121;SDS011;7139;48.114;11.442;2023-09-12T07:21:53;11.53;;;10.43;;
14121;SDS011;7139;48.114;11.442;2023-09-12T07:24:24;13.30;;;11.20;;
14121;SDS011;7139;48.114;11.442;2023-09-12T07:26:51;11.73;;;10.63;;
14121;SDS011;7139;48.114;11.442;2023-09-12T07:29:19;11.20;;;10.20;;
14121;SDS011;7139;48.114;11.442;2023-09-12T07:31:46;11.13;;;10.10;;
14121;SDS011;7139;48.114;11.442;2023-09-12T07:34:12;10.93;;;10.00;;
14121;SDS011;7139;48.114;11.442;2023-09-12T07:36:39;10.90;;;9.90;;
14121;SDS011;7139;48.114;11.442;2023-09-12T07:39:06;10.40;;;9.40;;
14121;SDS011;7139;48.114;11.442;2023-09-12T07:41:33;10.63;;;9.60;;
14121;SDS011;7139;48.114;11.442;2023-09-12T07:44:00;10.20;;;9.30;;
14121;SDS011;7139;48.114;11.442;2023-09-12T07:46:31;10.47;;;9.47;;
14121;SDS011;7139;48.114;11.442;2023-09-12T07:48:57;10.37;;;9.37;;
14121;SDS011;7139;48.114;11.442;2023-09-12T07:51:24;9.67;;;8.80;;
14121;SDS011;7139;48.114;11.442;2023-09-12T07:53:51;10.97;;;9.87;;
14121;SDS011;7139;48.114;11.442;2023-09-12T07:56:18;10.07;;;9.17;;
14121;SDS011;7139;48.114;11.442;2023-09-12T07:58:44;10.90;;;9.90;;
14121;SDS011;7139;48.114;11.442;2023-09-12T08:01:11;9.73;;;8.93;;
14121;SDS011;7139;48.114;11.442;2023-09-12T08:03:39;9.93;;;9.23;;
14121;SDS011;7139;48.114;11.442;2023-09-12T08:06:08;10.27;;;9.27;;
14121;SDS011;7139;48.114;11.442;2023-09-12T08:08:34;10.37;;;9.47;;
14121;SDS011;7139;48.114;11.442;2023-09-12T08:11:01;10.10;;;9.20;;
14121;SDS011;7139;48.114;11.442;2023-09-12T08:13:29;10.23;;;9.20;;
14121;SDS011;7139;48.114;11.442;2023-09-12T08:15:56;9.97;;;9.17;;
14121;SDS011;7139;48.114;11.442;2023-09-12T08:18:25;9.83;;;8.90;;
14121;SDS011;7139;48.114;11.442;2023-09-12T08:20:54;9.87;;;9.10;;
14121;SDS011;7139;48.114;11.442;2023-09-12T08:23:21;9.50;;;8.60;;
14121;SDS011;7139;48.114;11.442;2023-09-12T08:25:47;10.18;;;9.18;;
14121;SDS011;7139;48.114;11.442;2023-09-12T08:28:14;10.30;;;9.45;;
14121;SDS011;7139;48.114;11.442;2023-09-12T08:30:42;9.75;;;8.85;;
14121;SDS011;7139;48.114;11.442;2023-09-12T08:33:10;9.70;;;8.95;;
14121;SDS011;7139;48.114;11.442;2023-09-12T08:35:36;9.63;;;8.77;;
14121;SDS011;7139;48.114;11.442;2023-09-12T08:38:04;10.15;;;9.25;;
14121;SDS011;7139;48.114;11.442;2023-09-12T08:40:32;9.48;;;8.77;;
14121;SDS011;7139;48.114;11.442;2023-09-12T08:43:00;9.32;;;8.52;;
14121;SDS011;7139;48.114;11.442;2023-09-12T08:45:28;9.15;;;8.45;;
14121;SDS011;7139;48.114;11.442;2023-09-12T08:47:56;9.38;;;8.57;;
14121;SDS011;7139;48.114;11.442;2023-09-12T08:50:25;9.18;;;8.40;;
14121;SDS011;7139;48.114;11.442;2023-09-12T08:52:56;8.82;;;8.02;;
14121;SDS011;7139;48.114;11.442;2023-09-12T08:55:24;8.75;;;8.00;;
14121;SDS011;7139;48.114;11.442;2023-09-12T08:57:50;9.02;;;8.32;;
14121;SDS011;7139;48.114;11.442;2023-09-12T09:00:18;9.25;;;8.43;;
14121;SDS011;7139;48.114;11.442;2023-09-12T09:02:45;8.82;;;8.10;;
14121;SDS011;7139;48.114;11.442;2023-09-12T09:05:12;9.15;;;8.45;;
14121;SDS011;7139;48.114;11.442;2023-09-12T09:07:41;9.07;;;8.27;;
14121;SDS011;7139;48.114;11.442;2023-09-12T09:10:10;9.40;;;8.60;;
14121;SDS011;7139;48.114;11.442;2023-09-12T09:12:42;9.65;;;8.75;;
14121;SDS011;7139;48.114;11.442;2023-09-12T09:15:20;9.23;;;8.52;;
14121;SDS011;7139;48.114;11.442;2023-09-12T09:17:47;10.07;;;9.05;;
14121;SDS011;7139;48.114;11.442;2023-09-12T09:20:21;9.73;;;8.88;;
14121;SDS011;7139;48.114;11.442;2023-09-12T09:22:55;10.77;;;9.25;;
14121;SDS011;7139;48.114;11.442;2023-09-12T09:25:23;9.98;;;8.98;;
14121;SDS011;7139;48.114;11.442;2023-09-12T09:27:51;9.18;;;8.27;;
14121;SDS011;7139;48.114;11.442;2023-09-12T09:30:18;10.35;;;8.77;;
14121;SDS011;7139;48.114;11.442;2023-09-12T09:32:53;9.25;;;8.45;;
14121;SDS011;7139;48.114;11.442;2023-09-12T09:35:20;9.25;;;8.45;;
14121;SDS011;7139;48.114;11.442;2023-09-12T09:37:47;11.32;;;10.25;;
14121;SDS011;7139;48.114;11.442;2023-09-12T09:40:14;9.70;;;8.90;;
14121;SDS011;7139;48.114;11.442;2023-09-12T09:42:41;9.73;;;8.82;;
14121;SDS011;7139;48.114;11.442;2023-09-12T09:45:09;9.32;;;8.43;;
14121;SDS011;7139;48.114;11.442;2023-09-12T09:47:36;9.73;;;8.77;;
14121;SDS011;7139;48.114;11.442;2023-09-12T09:50:03;9.68;;;8.60;;
14121;SDS011;7139;48.114;11.442;2023-09-12T09:52:30;9.25;;;8.50;;
14121;SDS011;7139;48.114;11.442;2023-09-12T09:54:57;9.95;;;9.00;;
14121;SDS011;7139;48.114;11.442;2023-09-12T09:57:25;9.32;;;8.43;;
14121;SDS011;7139;48.114;11.442;2023-09-12T09:59:52;9.00;;;8.10;;
14121;SDS011;7139;48.114;11.442;2023-09-12T10:02:21;9.13;;;8.27;;
14121;SDS011;7139;48.114;11.442;2023-09-12T10:04:51;8.25;;;7.57;;
14121;SDS011;7139;48.114;11.442;2023-09-12T10:07:20;9.35;;;8.55;;
14121;SDS011;7139;48.114;11.442;2023-09-12T10:09:47;8.95;;;8.20;;
14121;SDS011;7139;48.114;11.442;2023-09-12T10:12:15;10.60;;;8.55;;
14121;SDS011;7139;48.114;11.442;2023-09-12T10:14:42;9.48;;;8.57;;
14121;SDS011;7139;48.114;11.442;2023-09-12T10:17:10;11.40;;;8.10;;
14121;SDS011;7139;48.114;11.442;2023-09-12T10:19:42;8.85;;;8.05;;
14121;SDS011;7139;48.114;11.442;2023-09-12T10:22:17;8.48;;;7.70;;
14121;SDS011;7139;48.114;11.442;2023-09-12T10:24:47;10.05;;;8.10;;
14121;SDS011;7139;48.114;11.442;2023-09-12T10:27:15;8.02;;;7.22;;
14121;SDS011;7139;48.114;11.442;2023-09-12T10:29:44;8.57;;;7.78;;
14121;SDS011;7139;48.114;11.442;2023-09-12T10:32:14;10.38;;;7.60;;
14121;SDS011;7139;48.114;11.442;2023-09-12T10:34:43;11.00;;;7.63;;
14121;SDS011;7139;48.114;11.442;2023-09-12T10:37:12;20.55;;;8.27;;
14121;SDS011;7139;48.114;11.442;2023-09-12T10:39:42;14.80;;;7.93;;
14121;SDS011;7139;48.114;11.442;2023-09-12T10:42:09;7.93;;;7.28;;
14121;SDS011;7139;48.114;11.442;2023-09-12T10:44:37;12.80;;;7.80;;
14121;SDS011;7139;48.114;11.442;2023-09-12T10:47:04;23.60;;;8.48;;
14121;SDS011;7139;48.114;11.442;2023-09-12T10:49:32;12.68;;;7.93;;
14121;SDS011;7139;48.114;11.442;2023-09-12T10:52:00;8.88;;;8.02;;
14121;SDS011;7139;48.114;11.442;2023-09-12T10:54:35;8.82;;;7.30;;
14121;SDS011;7139;48.114;11.442;2023-09-12T10:57:03;7.65;;;6.95;;
14121;SDS011;7139;48.114;11.442;2023-09-12T10:59:30;10.23;;;7.50;;
14121;SDS011;7139;48.114;11.442;2023-09-12T11:04:55;8.65;;;7.28;;
14121;SDS011;7139;48.114;11.442;2023-09-12T11:07:34;8.63;;;7.78;;
14121;SDS011;7139;48.114;11.442;2023-09-12T11:10:17;12.93;;;8.27;;
14121;SDS011;7139;48.114;11.442;2023-09-12T11:12:46;10.82;;;7.40;;
14121;SDS011;7139;48.114;11.442;2023-09-12T11:15:14;10.60;;;7.72;;
14121;SDS011;7139;48.114;11.442;2023-09-12T11:17:42;14.20;;;7.60;;
14121;SDS011;7139;48.114;11.442;2023-09-12T11:20:09;16.02;;;7.70;;
14121;SDS011;7139;48.114;11.442;2023-09-12T11:22:39;9.45;;;8.10;;
14121;SDS011;7139;48.114;11.442;2023-09-12T11:25:15;11.25;;;7.60;;
14121;SDS011;7139;48.114;11.442;2023-09-12T11:28:01;11.80;;;7.55;;
14121;SDS011;7139;48.114;11.442;2023-09-12T11:30:29;11.95;;;7.72;;
14121;SDS011;7139;48.114;11.442;2023-09-12T11:32:57;8.95;;;8.07;;
14121;SDS011;7139;48.114;11.442;2023-09-12T11:35:25;12.00;;;7.60;;
14121;SDS011;7139;48.114;11.442;2023-09-12T11:37:55;10.52;;;7.43;;
14121;SDS011;7139;48.114;11.442;2023-09-12T11:40:23;9.35;;;7.43;;
14121;SDS011;7139;48.114;11.442;2023-09-12T11:42:51;10.18;;;7.50;;
14121;SDS011;7139;48.114;11.442;2023-09-12T11:45:18;10.63;;;7.78;;
14121;SDS011;7139;48.114;11.442;2023-09-12T11:47:46;12.48;;;7.88;;
14121;SDS011;7139;48.114;11.442;2023-09-12T11:50:26;11.13;;;7.80;;
14121;SDS011;7139;48.114;11.442;2023-09-12T11:53:02;10.80;;;7.50;;
14121;SDS011;7139;48.114;11.442;2023-09-12T11:55:33;8.48;;;7.20;;
14121;SDS011;7139;48.114;11.442;2023-09-12T11:58:02;10.00;;;7.60;;
14121;SDS011;7139;48.114;11.442;2023-09-12T12:00:29;7.60;;;6.90;;
14121;SDS011;7139;48.114;11.442;2023-09-12T12:02:56;7.60;;;6.90;;
14121;SDS011;7139;48.114;11.442;2023-09-12T12:05:24;8.65;;;7.82;;
14121;SDS011;7139;48.114;11.442;2023-09-12T12:07:50;8.35;;;7.65;;
14121;SDS011;7139;48.114;11.442;2023-09-12T12:10:19;8.13;;;7.07;;
14121;SDS011;7139;48.114;11.442;2023-09-12T12:12:46;30.38;;;9.73;;
14121;SDS011;7139;48.114;11.442;2023-09-12T12:15:13;7.55;;;6.60;;
14121;SDS011;7139;48.114;11.442;2023-09-12T12:17:40;8.05;;;7.25;;
14121;SDS011;7139;48.114;11.442;2023-09-12T12:20:08;7.70;;;6.90;;
14121;SDS011;7139;48.114;11.442;2023-09-12T12:22:36;8.07;;;7.28;;
14121;SDS011;7139;48.114;11.442;2023-09-12T12:25:07;7.18;;;6.47;;
14121;SDS011;7139;48.114;11.442;2023-09-12T12:27:36;8.18;;;7.35;;
14121;SDS011;7139;48.114;11.442;2023-09-12T12:30:04;11.13;;;7.22;;
14121;SDS011;7139;48.114;11.442;2023-09-12T12:32:32;7.60;;;6.68;;
14121;SDS011;7139;48.114;11.442;2023-09-12T12:34:59;12.25;;;7.40;;
14121;SDS011;7139;48.114;11.442;2023-09-12T12:37:28;12.45;;;6.63;;
14121;SDS011;7139;48.114;11.442;2023-09-12T12:39:59;7.57;;;6.82;;
14121;SDS011;7139;48.114;11.442;2023-09-12T12:42:32;15.32;;;7.50;;
14121;SDS011;7139;48.114;11.442;2023-09-12T12:45:02;13.02;;;7.45;;
14121;SDS011;7139;48.114;11.442;2023-09-12T12:47:36;14.65;;;7.60;;
14121;SDS011;7139;48.114;11.442;2023-09-12T12:50:06;10.45;;;6.70;;
14121;SDS011;7139;48.114;11.442;2023-09-12T12:52:34;8.10;;;7.00;;
14121;SDS011;7139;48.114;11.442;2023-09-12T12:55:05;8.27;;;6.85;;
14121;SDS011;7139;48.114;11.442;2023-09-12T12:57:35;7.07;;;6.20;;
14121;SDS011;7139;48.114;11.442;2023-09-12T13:00:06;12.27;;;6.82;;
14121;SDS011;7139;48.114;11.442;2023-09-12T13:02:35;12.35;;;7.25;;
14121;SDS011;7139;48.114;11.442;2023-09-12T13:05:02;10.38;;;7.63;;
14121;SDS011;7139;48.114;11.442;2023-09-12T13:07:32;8.35;;;7.35;;
14121;SDS011;7139;48.114;11.442;2023-09-12T13:09:59;7.55;;;6.45;;
14121;SDS011;7139;48.114;11.442;2023-09-12T13:12:27;8.27;;;6.85;;
14121;SDS011;7139;48.114;11.442;2023-09-12T13:14:54;7.75;;;6.30;;
14121;SDS011;7139;48.114;11.442;2023-09-12T13:17:22;7.82;;;6.45;;
14121;SDS011;7139;48.114;11.442;2023-09-12T13:19:49;7.97;;;7.20;;
14121;SDS011;7139;48.114;11.442;2023-09-12T13:22:16;7.72;;;6.97;;
14121;SDS011;7139;48.114;11.442;2023-09-12T13:24:43;7.72;;;7.00;;
14121;SDS011;7139;48.114;11.442;2023-09-12T13:27:09;7.43;;;6.45;;
14121;SDS011;7139;48.114;11.442;2023-09-12T13:29:36;10.48;;;6.88;;
14121;SDS011;7139;48.114;11.442;2023-09-12T13:32:03;7.55;;;6.82;;
14121;SDS011;7139;48.114;11.442;2023-09-12T13:34:32;11.85;;;7.55;;
14121;SDS011;7139;48.114;11.442;2023-09-12T13:36:58;12.30;;;7.43;;
14121;SDS011;7139;48.114;11.442;2023-09-12T13:39:25;15.05;;;7.85;;
14121;SDS011;7139;48.114;11.442;2023-09-12T13:41:52;11.23;;;8.02;;
14121;SDS011;7139;48.114;11.442;2023-09-12T13:44:22;7.32;;;6.63;;
14121;SDS011;7139;48.114;11.442;2023-09-12T13:46:49;9.48;;;6.78;;
14121;SDS011;7139;48.114;11.442;2023-09-12T13:49:16;7.43;;;6.70;;
14121;SDS011;7139;48.114;11.442;2023-09-12T13:51:44;10.20;;;6.32;;
14121;SDS011;7139;48.114;11.442;2023-09-12T13:54:11;8.55;;;7.10;;
14121;SDS011;7139;48.114;11.442;2023-09-12T13:56:39;7.22;;;6.55;;
14121;SDS011;7139;48.114;11.442;2023-09-12T13:59:06;7.20;;;6.50;;
14121;SDS011;7139;48.114;11.442;2023-09-12T14:01:33;6.68;;;6.15;;
14121;SDS011;7139;48.114;11.442;2023-09-12T14:04:00;7.68;;;6.57;;
14121;SDS011;7139;48.114;11.442;2023-09-12T14:06:27;7.75;;;6.95;;
14121;SDS011;7139;48.114;11.442;2023-09-12T14:08:55;6.90;;;6.30;;
14121;SDS011;7139;48.114;11.442;2023-09-12T14:11:22;6.88;;;6.20;;
14121;SDS011;7139;48.114;11.442;2023-09-12T14:13:48;7.70;;;7.00;;
14121;SDS011;7139;48.114;11.442;2023-09-12T14:16:15;9.10;;;6.88;;
14121;SDS011;7139;48.114;11.442;2023-09-12T14:18:42;7.78;;;7.13;;
14121;SDS011;7139;48.114;11.442;2023-09-12T14:21:09;14.75;;;7.07;;
14121;SDS011;7139;48.114;11.442;2023-09-12T14:23:35;11.70;;;6.93;;
14121;SDS011;7139;48.114;11.442;2023-09-12T14:26:03;8.13;;;6.80;;
14121;SDS011;7139;48.114;11.442;2023-09-12T14:28:30;9.55;;;7.50;;
14121;SDS011;7139;48.114;11.442;2023-09-12T14:30:59;7.10;;;6.40;;
14121;SDS011;7139;48.114;11.442;2023-09-12T14:33:26;7.30;;;6.60;;
14121;SDS011;7139;48.114;11.442;2023-09-12T14:35:52;15.63;;;7.28;;
14121;SDS011;7139;48.114;11.442;2023-09-12T14:38:19;20.42;;;7.68;;
14121;SDS011;7139;48.114;11.442;2023-09-12T14:40:46;10.70;;;6.50;;
14121;SDS011;7139;48.114;11.442;2023-09-12T14:43:14;6.95;;;6.30;;